sensor_id;sensor_type;location;lat;lon;timestamp;P1;durP1;ratioP1;P2;durP2;ratioP2
26656;SDS011;14279;50.010;8.260;2023-03-23T00:01:12;2.97;;;1.30;;
26656;SDS011;14279;50.010;8.260;2023-03-23T00:03:40;2.50;;;1.47;;
26656;SDS011;14279;50.010;8.260;2023-03-23T00:06:06;5.43;;;1.80;;
26656;SDS011;14279;50.010;8.260;2023-03-23T00:08:33;3.10;;;1.50;;
26656;SDS011;14279;50.010;8.260;2023-03-23T00:11:02;4.80;;;1.40;;
26656;SDS011;14279;50.010;8.260;2023-03-23T00:13:28;2.10;;;1.50;;
26656;SDS011;14279;50.010;8.260;2023-03-23T00:15:54;7.43;;;1.87;;
26656;SDS011;14279;50.010;8.260;2023-03-23T00:18:21;1.83;;;1.40;;
26656;SDS011;14279;50.010;8.260;2023-03-23T00:20:48;2.83;;;1.70;;
26656;SDS011;14279;50.010;8.260;2023-03-23T00:23:15;1.37;;;0.97;;
26656;SDS011;14279;50.010;8.260;2023-03-23T00:25:45;4.77;;;1.70;;
26656;SDS011;14279;50.010;8.260;2023-03-23T00:28:11;6.03;;;1.47;;
26656;SDS011;14279;50.010;8.260;2023-03-23T00:30:37;4.13;;;1.60;;
26656;SDS011;14279;50.010;8.260;2023-03-23T00:33:03;1.93;;;1.40;;
26656;SDS011;14279;50.010;8.260;2023-03-23T00:35:29;2.13;;;1.30;;
26656;SDS011;14279;50.010;8.260;2023-03-23T00:37:55;5.40;;;1.20;;
26656;SDS011;14279;50.010;8.260;2023-03-23T00:40:21;2.13;;;1.23;;
26656;SDS011;14279;50.010;8.260;2023-03-23T00:42:47;4.50;;;1.10;;
26656;SDS011;14279;50.010;8.260;2023-03-23T00:45:13;3.53;;;1.20;;
26656;SDS011;14279;50.010;8.260;2023-03-23T00:47:39;3.37;;;1.60;;
26656;SDS011;14279;50.010;8.260;2023-03-23T00:50:07;5.80;;;1.30;;
26656;SDS011;14279;50.010;8.260;2023-03-23T00:52:32;3.67;;;1.30;;
26656;SDS011;14279;50.010;8.260;2023-03-23T00:54:58;1.43;;;1.03;;
26656;SDS011;14279;50.010;8.260;2023-03-23T00:57:24;1.17;;;0.93;;
26656;SDS011;14279;50.010;8.260;2023-03-23T00:59:50;2.30;;;1.40;;
26656;SDS011;14279;50.010;8.260;2023-03-23T01:02:16;2.00;;;1.20;;
26656;SDS011;14279;50.010;8.260;2023-03-23T01:04:41;1.10;;;1.10;;
26656;SDS011;14279;50.010;8.260;2023-03-23T01:07:09;2.53;;;1.13;;
26656;SDS011;14279;50.010;8.260;2023-03-23T01:09:37;1.30;;;1.20;;
26656;SDS011;14279;50.010;8.260;2023-03-23T01:12:05;2.30;;;1.10;;
26656;SDS011;14279;50.010;8.260;2023-03-23T01:14:30;1.23;;;1.07;;
26656;SDS011;14279;50.010;8.260;2023-03-23T01:16:56;1.50;;;1.10;;
26656;SDS011;14279;50.010;8.260;2023-03-23T01:19:21;2.03;;;1.30;;
26656;SDS011;14279;50.010;8.260;2023-03-23T01:21:47;1.23;;;1.13;;
26656;SDS011;14279;50.010;8.260;2023-03-23T01:24:12;1.63;;;1.00;;
26656;SDS011;14279;50.010;8.260;2023-03-23T01:26:38;1.30;;;1.20;;
26656;SDS011;14279;50.010;8.260;2023-03-23T01:29:03;1.37;;;1.00;;
26656;SDS011;14279;50.010;8.260;2023-03-23T01:31:29;1.50;;;1.07;;
26656;SDS011;14279;50.010;8.260;2023-03-23T01:33:54;1.47;;;1.30;;
26656;SDS011;14279;50.010;8.260;2023-03-23T01:36:22;2.10;;;0.90;;
26656;SDS011;14279;50.010;8.260;2023-03-23T01:38:51;1.17;;;0.90;;
26656;SDS011;14279;50.010;8.260;2023-03-23T01:41:17;2.43;;;1.30;;
26656;SDS011;14279;50.010;8.260;2023-03-23T01:43:56;1.23;;;1.13;;
26656;SDS011;14279;50.010;8.260;2023-03-23T01:46:26;3.17;;;1.20;;
26656;SDS011;14279;50.010;8.260;2023-03-23T01:48:53;1.30;;;1.10;;
26656;SDS011;14279;50.010;8.260;2023-03-23T01:51:21;2.90;;;1.30;;
26656;SDS011;14279;50.010;8.260;2023-03-23T01:53:54;5.90;;;1.20;;
26656;SDS011;14279;50.010;8.260;2023-03-23T01:56:22;2.80;;;1.20;;
26656;SDS011;14279;50.010;8.260;2023-03-23T01:58:52;1.47;;;1.10;;
26656;SDS011;14279;50.010;8.260;2023-03-23T02:01:18;1.60;;;1.20;;
26656;SDS011;14279;50.010;8.260;2023-03-23T02:03:46;0.90;;;0.90;;
26656;SDS011;14279;50.010;8.260;2023-03-23T02:06:13;1.07;;;1.07;;
26656;SDS011;14279;50.010;8.260;2023-03-23T02:08:38;2.20;;;1.40;;
26656;SDS011;14279;50.010;8.260;2023-03-23T02:11:17;1.00;;;0.90;;
26656;SDS011;14279;50.010;8.260;2023-03-23T02:13:44;2.23;;;1.20;;
26656;SDS011;14279;50.010;8.260;2023-03-23T02:16:17;1.43;;;1.00;;
26656;SDS011;14279;50.010;8.260;2023-03-23T02:24:37;4.47;;;1.60;;
26656;SDS011;14279;50.010;8.260;2023-03-23T02:27:20;1.40;;;1.30;;
26656;SDS011;14279;50.010;8.260;2023-03-23T02:30:27;2.70;;;1.20;;
26656;SDS011;14279;50.010;8.260;2023-03-23T02:33:21;1.30;;;1.20;;
26656;SDS011;14279;50.010;8.260;2023-03-23T02:36:06;2.57;;;1.10;;
26656;SDS011;14279;50.010;8.260;2023-03-23T02:39:00;1.47;;;1.20;;
26656;SDS011;14279;50.010;8.260;2023-03-23T02:41:41;4.23;;;1.10;;
26656;SDS011;14279;50.010;8.260;2023-03-23T02:44:10;0.90;;;0.90;;
26656;SDS011;14279;50.010;8.260;2023-03-23T02:46:37;1.30;;;1.20;;
26656;SDS011;14279;50.010;8.260;2023-03-23T02:49:05;1.27;;;0.90;;
26656;SDS011;14279;50.010;8.260;2023-03-23T02:51:32;6.23;;;1.20;;
26656;SDS011;14279;50.010;8.260;2023-03-23T02:53:59;1.57;;;1.30;;
26656;SDS011;14279;50.010;8.260;2023-03-23T02:56:26;1.20;;;1.10;;
26656;SDS011;14279;50.010;8.260;2023-03-23T02:58:54;3.70;;;1.50;;
26656;SDS011;14279;50.010;8.260;2023-03-23T03:03:51;1.93;;;1.20;;
26656;SDS011;14279;50.010;8.260;2023-03-23T03:06:26;1.10;;;1.00;;
26656;SDS011;14279;50.010;8.260;2023-03-23T03:08:57;1.57;;;1.47;;
26656;SDS011;14279;50.010;8.260;2023-03-23T03:11:28;1.90;;;1.00;;
26656;SDS011;14279;50.010;8.260;2023-03-23T03:14:00;1.30;;;1.20;;
26656;SDS011;14279;50.010;8.260;2023-03-23T03:16:33;1.50;;;1.40;;
26656;SDS011;14279;50.010;8.260;2023-03-23T03:21:54;1.13;;;1.03;;
26656;SDS011;14279;50.010;8.260;2023-03-23T03:24:22;1.50;;;1.07;;
26656;SDS011;14279;50.010;8.260;2023-03-23T03:26:52;1.20;;;1.10;;
26656;SDS011;14279;50.010;8.260;2023-03-23T03:29:23;1.27;;;1.20;;
26656;SDS011;14279;50.010;8.260;2023-03-23T03:31:54;2.00;;;1.10;;
26656;SDS011;14279;50.010;8.260;2023-03-23T03:34:21;2.53;;;1.50;;
26656;SDS011;14279;50.010;8.260;2023-03-23T03:36:49;1.80;;;1.33;;
26656;SDS011;14279;50.010;8.260;2023-03-23T03:39:17;1.67;;;1.30;;
26656;SDS011;14279;50.010;8.260;2023-03-23T03:41:45;2.33;;;1.77;;
26656;SDS011;14279;50.010;8.260;2023-03-23T03:44:11;1.33;;;1.23;;
26656;SDS011;14279;50.010;8.260;2023-03-23T03:46:36;1.60;;;1.50;;
26656;SDS011;14279;50.010;8.260;2023-03-23T03:49:03;3.13;;;1.40;;
26656;SDS011;14279;50.010;8.260;2023-03-23T03:51:30;1.40;;;1.30;;
26656;SDS011;14279;50.010;8.260;2023-03-23T03:53:57;2.67;;;1.50;;
26656;SDS011;14279;50.010;8.260;2023-03-23T03:56:22;2.17;;;1.40;;
26656;SDS011;14279;50.010;8.260;2023-03-23T03:58:49;1.33;;;1.20;;
26656;SDS011;14279;50.010;8.260;2023-03-23T04:01:15;1.33;;;1.17;;
26656;SDS011;14279;50.010;8.260;2023-03-23T04:03:41;2.03;;;1.47;;
26656;SDS011;14279;50.010;8.260;2023-03-23T04:06:07;1.40;;;1.30;;
26656;SDS011;14279;50.010;8.260;2023-03-23T04:08:33;2.03;;;1.43;;
26656;SDS011;14279;50.010;8.260;2023-03-23T04:10:59;1.60;;;1.40;;
26656;SDS011;14279;50.010;8.260;2023-03-23T04:13:24;1.30;;;1.20;;
26656;SDS011;14279;50.010;8.260;2023-03-23T04:15:49;1.77;;;1.40;;
26656;SDS011;14279;50.010;8.260;2023-03-23T04:18:15;1.43;;;1.30;;
26656;SDS011;14279;50.010;8.260;2023-03-23T04:20:43;2.13;;;1.30;;
26656;SDS011;14279;50.010;8.260;2023-03-23T04:23:12;1.83;;;1.70;;
26656;SDS011;14279;50.010;8.260;2023-03-23T04:25:38;1.30;;;1.20;;
26656;SDS011;14279;50.010;8.260;2023-03-23T04:28:05;1.73;;;1.50;;
26656;SDS011;14279;50.010;8.260;2023-03-23T04:30:30;2.10;;;1.10;;
26656;SDS011;14279;50.010;8.260;2023-03-23T04:32:56;1.57;;;1.20;;
26656;SDS011;14279;50.010;8.260;2023-03-23T04:35:24;2.00;;;1.60;;
26656;SDS011;14279;50.010;8.260;2023-03-23T04:37:51;2.60;;;1.30;;
26656;SDS011;14279;50.010;8.260;2023-03-23T04:40:18;1.33;;;1.23;;
26656;SDS011;14279;50.010;8.260;2023-03-23T04:42:44;2.70;;;1.60;;
26656;SDS011;14279;50.010;8.260;2023-03-23T04:45:11;2.07;;;1.60;;
26656;SDS011;14279;50.010;8.260;2023-03-23T04:47:47;2.00;;;1.37;;
26656;SDS011;14279;50.010;8.260;2023-03-23T04:50:18;2.17;;;1.63;;
26656;SDS011;14279;50.010;8.260;2023-03-23T04:52:46;1.90;;;1.63;;
26656;SDS011;14279;50.010;8.260;2023-03-23T04:55:12;1.73;;;1.50;;
26656;SDS011;14279;50.010;8.260;2023-03-23T04:57:38;1.60;;;1.50;;
26656;SDS011;14279;50.010;8.260;2023-03-23T05:00:03;2.53;;;1.77;;
26656;SDS011;14279;50.010;8.260;2023-03-23T05:02:34;1.87;;;1.40;;
26656;SDS011;14279;50.010;8.260;2023-03-23T05:05:00;2.10;;;1.73;;
26656;SDS011;14279;50.010;8.260;2023-03-23T05:07:25;2.40;;;1.67;;
26656;SDS011;14279;50.010;8.260;2023-03-23T05:09:51;1.50;;;1.30;;
26656;SDS011;14279;50.010;8.260;2023-03-23T05:12:16;3.23;;;1.77;;
26656;SDS011;14279;50.010;8.260;2023-03-23T05:14:42;2.30;;;1.80;;
26656;SDS011;14279;50.010;8.260;2023-03-23T05:17:08;2.13;;;1.23;;
26656;SDS011;14279;50.010;8.260;2023-03-23T05:19:34;1.80;;;1.50;;
26656;SDS011;14279;50.010;8.260;2023-03-23T05:22:00;1.60;;;1.50;;
26656;SDS011;14279;50.010;8.260;2023-03-23T05:24:29;2.63;;;2.00;;
26656;SDS011;14279;50.010;8.260;2023-03-23T05:26:57;2.13;;;1.57;;
26656;SDS011;14279;50.010;8.260;2023-03-23T05:29:23;1.90;;;1.63;;
26656;SDS011;14279;50.010;8.260;2023-03-23T05:31:48;5.60;;;1.40;;
26656;SDS011;14279;50.010;8.260;2023-03-23T05:34:14;1.63;;;1.53;;
26656;SDS011;14279;50.010;8.260;2023-03-23T05:36:40;2.90;;;1.53;;
26656;SDS011;14279;50.010;8.260;2023-03-23T05:39:08;4.50;;;1.97;;
26656;SDS011;14279;50.010;8.260;2023-03-23T05:41:34;3.07;;;1.63;;
26656;SDS011;14279;50.010;8.260;2023-03-23T05:44:00;1.80;;;1.70;;
26656;SDS011;14279;50.010;8.260;2023-03-23T05:46:25;7.70;;;1.83;;
26656;SDS011;14279;50.010;8.260;2023-03-23T05:48:51;4.30;;;1.77;;
26656;SDS011;14279;50.010;8.260;2023-03-23T05:51:16;2.43;;;1.63;;
26656;SDS011;14279;50.010;8.260;2023-03-23T05:53:43;1.90;;;1.77;;
26656;SDS011;14279;50.010;8.260;2023-03-23T05:56:08;2.70;;;1.97;;
26656;SDS011;14279;50.010;8.260;2023-03-23T05:58:34;2.20;;;1.83;;
26656;SDS011;14279;50.010;8.260;2023-03-23T06:00:59;3.27;;;1.80;;
26656;SDS011;14279;50.010;8.260;2023-03-23T06:03:24;2.57;;;1.70;;
26656;SDS011;14279;50.010;8.260;2023-03-23T06:05:49;1.90;;;1.67;;
26656;SDS011;14279;50.010;8.260;2023-03-23T06:08:15;4.10;;;1.73;;
26656;SDS011;14279;50.010;8.260;2023-03-23T06:10:40;2.23;;;1.33;;
26656;SDS011;14279;50.010;8.260;2023-03-23T06:13:05;1.73;;;1.63;;
26656;SDS011;14279;50.010;8.260;2023-03-23T06:15:31;3.17;;;1.90;;
26656;SDS011;14279;50.010;8.260;2023-03-23T06:18:00;1.50;;;1.40;;
26656;SDS011;14279;50.010;8.260;2023-03-23T06:20:27;2.40;;;1.67;;
26656;SDS011;14279;50.010;8.260;2023-03-23T06:22:53;2.43;;;1.53;;
26656;SDS011;14279;50.010;8.260;2023-03-23T06:25:18;1.80;;;1.67;;
26656;SDS011;14279;50.010;8.260;2023-03-23T06:27:44;2.60;;;1.70;;
26656;SDS011;14279;50.010;8.260;2023-03-23T06:30:10;4.43;;;1.70;;
26656;SDS011;14279;50.010;8.260;2023-03-23T06:32:36;1.63;;;1.53;;
26656;SDS011;14279;50.010;8.260;2023-03-23T06:35:03;2.50;;;1.77;;
26656;SDS011;14279;50.010;8.260;2023-03-23T06:37:29;3.87;;;2.03;;
26656;SDS011;14279;50.010;8.260;2023-03-23T06:39:55;2.40;;;1.80;;
26656;SDS011;14279;50.010;8.260;2023-03-23T06:42:21;1.67;;;1.57;;
26656;SDS011;14279;50.010;8.260;2023-03-23T06:44:48;1.67;;;1.57;;
26656;SDS011;14279;50.010;8.260;2023-03-23T06:47:14;3.90;;;1.80;;
26656;SDS011;14279;50.010;8.260;2023-03-23T06:49:39;2.73;;;1.67;;
26656;SDS011;14279;50.010;8.260;2023-03-23T06:52:04;1.80;;;1.70;;
26656;SDS011;14279;50.010;8.260;2023-03-23T06:54:31;3.30;;;1.67;;
26656;SDS011;14279;50.010;8.260;2023-03-23T06:56:56;3.20;;;1.57;;
26656;SDS011;14279;50.010;8.260;2023-03-23T06:59:21;1.93;;;1.70;;
26656;SDS011;14279;50.010;8.260;2023-03-23T07:01:46;3.07;;;2.10;;
26656;SDS011;14279;50.010;8.260;2023-03-23T07:04:13;3.70;;;2.50;;
26656;SDS011;14279;50.010;8.260;2023-03-23T07:06:39;3.23;;;2.03;;
26656;SDS011;14279;50.010;8.260;2023-03-23T07:09:05;3.17;;;2.87;;
26656;SDS011;14279;50.010;8.260;2023-03-23T07:11:31;4.30;;;2.10;;
26656;SDS011;14279;50.010;8.260;2023-03-23T07:13:57;2.37;;;2.17;;
26656;SDS011;14279;50.010;8.260;2023-03-23T07:16:22;3.77;;;2.20;;
26656;SDS011;14279;50.010;8.260;2023-03-23T07:18:47;2.83;;;2.10;;
26656;SDS011;14279;50.010;8.260;2023-03-23T07:21:13;9.33;;;2.50;;
26656;SDS011;14279;50.010;8.260;2023-03-23T07:23:38;3.23;;;1.90;;
26656;SDS011;14279;50.010;8.260;2023-03-23T07:26:03;3.70;;;2.17;;
26656;SDS011;14279;50.010;8.260;2023-03-23T07:28:30;3.83;;;2.13;;
26656;SDS011;14279;50.010;8.260;2023-03-23T07:30:55;3.30;;;2.13;;
26656;SDS011;14279;50.010;8.260;2023-03-23T07:33:20;6.30;;;2.70;;
26656;SDS011;14279;50.010;8.260;2023-03-23T07:35:46;2.70;;;2.20;;
26656;SDS011;14279;50.010;8.260;2023-03-23T07:38:12;4.70;;;2.37;;
26656;SDS011;14279;50.010;8.260;2023-03-23T07:40:38;2.07;;;1.93;;
26656;SDS011;14279;50.010;8.260;2023-03-23T07:43:04;5.50;;;1.80;;
26656;SDS011;14279;50.010;8.260;2023-03-23T07:45:33;2.80;;;2.20;;
26656;SDS011;14279;50.010;8.260;2023-03-23T07:51:40;4.70;;;2.10;;
26656;SDS011;14279;50.010;8.260;2023-03-23T07:54:08;2.13;;;1.77;;
26656;SDS011;14279;50.010;8.260;2023-03-23T07:56:52;3.30;;;2.10;;
26656;SDS011;14279;50.010;8.260;2023-03-23T07:59:17;5.67;;;2.33;;
26656;SDS011;14279;50.010;8.260;2023-03-23T08:01:42;2.50;;;2.17;;
26656;SDS011;14279;50.010;8.260;2023-03-23T08:04:08;4.17;;;2.47;;
26656;SDS011;14279;50.010;8.260;2023-03-23T08:06:34;10.13;;;2.23;;
26656;SDS011;14279;50.010;8.260;2023-03-23T08:09:00;3.03;;;2.20;;
26656;SDS011;14279;50.010;8.260;2023-03-23T08:11:32;6.67;;;2.67;;
26656;SDS011;14279;50.010;8.260;2023-03-23T08:13:59;4.43;;;2.07;;
26656;SDS011;14279;50.010;8.260;2023-03-23T08:16:24;6.70;;;2.10;;
26656;SDS011;14279;50.010;8.260;2023-03-23T08:18:50;3.73;;;1.90;;
26656;SDS011;14279;50.010;8.260;2023-03-23T08:21:19;5.67;;;2.00;;
26656;SDS011;14279;50.010;8.260;2023-03-23T08:23:52;2.90;;;2.00;;
26656;SDS011;14279;50.010;8.260;2023-03-23T08:26:17;4.17;;;2.23;;
26656;SDS011;14279;50.010;8.260;2023-03-23T08:28:42;3.70;;;2.23;;
26656;SDS011;14279;50.010;8.260;2023-03-23T08:31:09;3.13;;;1.67;;
26656;SDS011;14279;50.010;8.260;2023-03-23T08:33:37;22.73;;;2.30;;
26656;SDS011;14279;50.010;8.260;2023-03-23T08:36:03;4.10;;;2.00;;
26656;SDS011;14279;50.010;8.260;2023-03-23T08:38:29;4.67;;;2.17;;
26656;SDS011;14279;50.010;8.260;2023-03-23T08:40:59;2.07;;;1.80;;
26656;SDS011;14279;50.010;8.260;2023-03-23T08:43:26;3.47;;;2.13;;
26656;SDS011;14279;50.010;8.260;2023-03-23T08:45:52;3.47;;;2.00;;
26656;SDS011;14279;50.010;8.260;2023-03-23T08:48:18;5.80;;;2.70;;
26656;SDS011;14279;50.010;8.260;2023-03-23T08:50:43;15.83;;;2.90;;
26656;SDS011;14279;50.010;8.260;2023-03-23T08:53:09;2.93;;;1.80;;
26656;SDS011;14279;50.010;8.260;2023-03-23T08:55:34;2.30;;;2.10;;
26656;SDS011;14279;50.010;8.260;2023-03-23T08:58:00;5.23;;;2.00;;
26656;SDS011;14279;50.010;8.260;2023-03-23T09:00:26;3.50;;;1.70;;
26656;SDS011;14279;50.010;8.260;2023-03-23T09:02:53;2.93;;;1.87;;
26656;SDS011;14279;50.010;8.260;2023-03-23T09:05:21;9.13;;;2.00;;
26656;SDS011;14279;50.010;8.260;2023-03-23T09:07:49;1.97;;;1.70;;
26656;SDS011;14279;50.010;8.260;2023-03-23T09:10:16;1.80;;;1.53;;
26656;SDS011;14279;50.010;8.260;2023-03-23T09:12:43;3.30;;;2.20;;
26656;SDS011;14279;50.010;8.260;2023-03-23T09:15:11;2.47;;;1.60;;
26656;SDS011;14279;50.010;8.260;2023-03-23T09:17:39;2.97;;;1.90;;
26656;SDS011;14279;50.010;8.260;2023-03-23T09:20:08;1.53;;;1.43;;
26656;SDS011;14279;50.010;8.260;2023-03-23T09:22:36;1.30;;;1.00;;
26656;SDS011;14279;50.010;8.260;2023-03-23T09:25:07;1.20;;;1.10;;
26656;SDS011;14279;50.010;8.260;2023-03-23T09:27:34;5.47;;;1.20;;
26656;SDS011;14279;50.010;8.260;2023-03-23T09:30:02;1.33;;;1.00;;
26656;SDS011;14279;50.010;8.260;2023-03-23T09:32:31;1.30;;;1.20;;
26656;SDS011;14279;50.010;8.260;2023-03-23T09:35:00;0.90;;;0.90;;
26656;SDS011;14279;50.010;8.260;2023-03-23T09:37:26;1.43;;;0.87;;
26656;SDS011;14279;50.010;8.260;2023-03-23T09:39:52;0.97;;;0.90;;
26656;SDS011;14279;50.010;8.260;2023-03-23T09:47:35;0.90;;;0.90;;
26656;SDS011;14279;50.010;8.260;2023-03-23T09:50:26;1.73;;;1.20;;
26656;SDS011;14279;50.010;8.260;2023-03-23T09:55:44;1.80;;;1.43;;
26656;SDS011;14279;50.010;8.260;2023-03-23T09:58:19;4.77;;;1.97;;
26656;SDS011;14279;50.010;8.260;2023-03-23T10:00:56;2.00;;;1.40;;
26656;SDS011;14279;50.010;8.260;2023-03-23T10:03:35;0.70;;;0.70;;
26656;SDS011;14279;50.010;8.260;2023-03-23T10:06:04;1.43;;;0.87;;
26656;SDS011;14279;50.010;8.260;2023-03-23T10:08:32;0.90;;;0.90;;
26656;SDS011;14279;50.010;8.260;2023-03-23T10:16:23;1.03;;;1.03;;
26656;SDS011;14279;50.010;8.260;2023-03-23T10:19:10;1.77;;;1.20;;
26656;SDS011;14279;50.010;8.260;2023-03-23T10:21:45;2.83;;;1.33;;
26656;SDS011;14279;50.010;8.260;2023-03-23T10:24:21;1.17;;;1.07;;
26656;SDS011;14279;50.010;8.260;2023-03-23T10:27:01;1.10;;;1.00;;
26656;SDS011;14279;50.010;8.260;2023-03-23T10:29:36;1.30;;;1.20;;
26656;SDS011;14279;50.010;8.260;2023-03-23T10:32:13;1.67;;;1.43;;
26656;SDS011;14279;50.010;8.260;2023-03-23T10:34:46;1.13;;;1.03;;
26656;SDS011;14279;50.010;8.260;2023-03-23T10:37:28;2.63;;;1.10;;
26656;SDS011;14279;50.010;8.260;2023-03-23T10:39:58;1.00;;;0.90;;
26656;SDS011;14279;50.010;8.260;2023-03-23T10:42:26;1.00;;;0.90;;
26656;SDS011;14279;50.010;8.260;2023-03-23T10:44:53;1.10;;;1.00;;
26656;SDS011;14279;50.010;8.260;2023-03-23T10:47:21;4.77;;;1.30;;
26656;SDS011;14279;50.010;8.260;2023-03-23T10:49:48;1.90;;;1.10;;
26656;SDS011;14279;50.010;8.260;2023-03-23T10:52:23;2.80;;;1.37;;
26656;SDS011;14279;50.010;8.260;2023-03-23T10:55:05;1.13;;;1.13;;
26656;SDS011;14279;50.010;8.260;2023-03-23T10:57:38;1.47;;;1.03;;
26656;SDS011;14279;50.010;8.260;2023-03-23T11:00:06;1.67;;;0.93;;
26656;SDS011;14279;50.010;8.260;2023-03-23T11:02:46;1.77;;;1.00;;
26656;SDS011;14279;50.010;8.260;2023-03-23T11:05:23;1.13;;;1.03;;
26656;SDS011;14279;50.010;8.260;2023-03-23T11:07:54;1.50;;;1.40;;
26656;SDS011;14279;50.010;8.260;2023-03-23T11:10:25;5.00;;;1.50;;
26656;SDS011;14279;50.010;8.260;2023-03-23T11:13:14;1.43;;;1.00;;
26656;SDS011;14279;50.010;8.260;2023-03-23T11:15:42;1.43;;;1.00;;
26656;SDS011;14279;50.010;8.260;2023-03-23T11:18:12;6.93;;;1.00;;
26656;SDS011;14279;50.010;8.260;2023-03-23T11:20:44;1.37;;;0.80;;
26656;SDS011;14279;50.010;8.260;2023-03-23T11:23:18;1.03;;;0.90;;
26656;SDS011;14279;50.010;8.260;2023-03-23T11:26:08;1.00;;;0.90;;
26656;SDS011;14279;50.010;8.260;2023-03-23T11:28:42;1.10;;;1.03;;
26656;SDS011;14279;50.010;8.260;2023-03-23T11:31:10;1.50;;;1.10;;
26656;SDS011;14279;50.010;8.260;2023-03-23T11:36:53;2.05;;;1.20;;
26656;SDS011;14279;50.010;8.260;2023-03-23T11:39:25;1.38;;;1.10;;
26656;SDS011;14279;50.010;8.260;2023-03-23T11:41:57;1.17;;;0.87;;
26656;SDS011;14279;50.010;8.260;2023-03-23T11:44:31;2.50;;;1.00;;
26656;SDS011;14279;50.010;8.260;2023-03-23T11:47:01;1.50;;;1.20;;
26656;SDS011;14279;50.010;8.260;2023-03-23T11:49:41;4.17;;;1.10;;
26656;SDS011;14279;50.010;8.260;2023-03-23T11:52:19;1.27;;;1.00;;
26656;SDS011;14279;50.010;8.260;2023-03-23T11:54:52;1.73;;;0.87;;
26656;SDS011;14279;50.010;8.260;2023-03-23T11:57:23;0.93;;;0.90;;
26656;SDS011;14279;50.010;8.260;2023-03-23T11:59:49;1.00;;;0.90;;
26656;SDS011;14279;50.010;8.260;2023-03-23T12:02:21;1.47;;;1.20;;
26656;SDS011;14279;50.010;8.260;2023-03-23T12:22:14;0.90;;;0.80;;
26656;SDS011;14279;50.010;8.260;2023-03-23T12:27:47;2.50;;;1.10;;
26656;SDS011;14279;50.010;8.260;2023-03-23T12:33:10;1.03;;;0.90;;
26656;SDS011;14279;50.010;8.260;2023-03-23T12:44:09;3.67;;;1.33;;
26656;SDS011;14279;50.010;8.260;2023-03-23T12:51:55;6.10;;;1.30;;
26656;SDS011;14279;50.010;8.260;2023-03-23T12:57:18;1.10;;;1.00;;
26656;SDS011;14279;50.010;8.260;2023-03-23T12:59:57;1.00;;;1.00;;
26656;SDS011;14279;50.010;8.260;2023-03-23T13:02:43;5.03;;;1.20;;
26656;SDS011;14279;50.010;8.260;2023-03-23T13:08:02;0.87;;;0.87;;
26656;SDS011;14279;50.010;8.260;2023-03-23T13:10:45;1.60;;;1.30;;
26656;SDS011;14279;50.010;8.260;2023-03-23T13:13:25;1.60;;;1.30;;
26656;SDS011;14279;50.010;8.260;2023-03-23T13:21:47;1.40;;;1.00;;
26656;SDS011;14279;50.010;8.260;2023-03-23T13:24:19;2.07;;;1.03;;
26656;SDS011;14279;50.010;8.260;2023-03-23T13:26:46;1.07;;;0.97;;
26656;SDS011;14279;50.010;8.260;2023-03-23T13:29:16;1.17;;;0.97;;
26656;SDS011;14279;50.010;8.260;2023-03-23T13:31:44;0.70;;;0.70;;
26656;SDS011;14279;50.010;8.260;2023-03-23T13:34:14;1.43;;;1.03;;
26656;SDS011;14279;50.010;8.260;2023-03-23T13:36:51;1.87;;;1.00;;
26656;SDS011;14279;50.010;8.260;2023-03-23T13:42:04;2.17;;;1.40;;
26656;SDS011;14279;50.010;8.260;2023-03-23T13:49:47;1.80;;;1.17;;
26656;SDS011;14279;50.010;8.260;2023-03-23T14:05:38;1.43;;;1.10;;
26656;SDS011;14279;50.010;8.260;2023-03-23T14:10:51;1.40;;;1.13;;
26656;SDS011;14279;50.010;8.260;2023-03-23T14:13:31;2.47;;;1.20;;
26656;SDS011;14279;50.010;8.260;2023-03-23T14:18:30;1.80;;;1.07;;
26656;SDS011;14279;50.010;8.260;2023-03-23T14:21:00;1.33;;;1.13;;
26656;SDS011;14279;50.010;8.260;2023-03-23T14:23:26;1.43;;;1.00;;
26656;SDS011;14279;50.010;8.260;2023-03-23T14:25:56;2.57;;;1.00;;
26656;SDS011;14279;50.010;8.260;2023-03-23T14:28:30;1.23;;;1.00;;
26656;SDS011;14279;50.010;8.260;2023-03-23T14:30:55;1.10;;;1.07;;
26656;SDS011;14279;50.010;8.260;2023-03-23T14:33:22;3.20;;;1.50;;
26656;SDS011;14279;50.010;8.260;2023-03-23T14:35:50;2.20;;;1.77;;
26656;SDS011;14279;50.010;8.260;2023-03-23T14:38:17;2.20;;;1.37;;
26656;SDS011;14279;50.010;8.260;2023-03-23T14:40:46;2.53;;;1.30;;
26656;SDS011;14279;50.010;8.260;2023-03-23T14:43:14;2.13;;;1.60;;
26656;SDS011;14279;50.010;8.260;2023-03-23T14:45:42;2.50;;;1.33;;
26656;SDS011;14279;50.010;8.260;2023-03-23T14:48:08;2.47;;;1.37;;
26656;SDS011;14279;50.010;8.260;2023-03-23T14:50:39;2.60;;;1.40;;
26656;SDS011;14279;50.010;8.260;2023-03-23T14:55:48;4.67;;;1.40;;
26656;SDS011;14279;50.010;8.260;2023-03-23T14:58:16;2.20;;;1.33;;
26656;SDS011;14279;50.010;8.260;2023-03-23T15:03:19;2.40;;;1.27;;
26656;SDS011;14279;50.010;8.260;2023-03-23T15:05:47;2.00;;;1.10;;
26656;SDS011;14279;50.010;8.260;2023-03-23T15:10:54;1.80;;;1.23;;
26656;SDS011;14279;50.010;8.260;2023-03-23T15:13:33;2.90;;;1.93;;
26656;SDS011;14279;50.010;8.260;2023-03-23T15:16:04;1.50;;;1.13;;
26656;SDS011;14279;50.010;8.260;2023-03-23T15:18:38;2.47;;;1.47;;
26656;SDS011;14279;50.010;8.260;2023-03-23T15:21:18;2.17;;;1.30;;
26656;SDS011;14279;50.010;8.260;2023-03-23T15:23:47;2.70;;;1.50;;
26656;SDS011;14279;50.010;8.260;2023-03-23T15:26:19;1.80;;;1.40;;
26656;SDS011;14279;50.010;8.260;2023-03-23T15:28:49;1.60;;;1.50;;
26656;SDS011;14279;50.010;8.260;2023-03-23T15:31:14;2.87;;;1.10;;
26656;SDS011;14279;50.010;8.260;2023-03-23T15:33:40;2.00;;;1.17;;
26656;SDS011;14279;50.010;8.260;2023-03-23T15:36:07;1.40;;;1.30;;
26656;SDS011;14279;50.010;8.260;2023-03-23T15:38:39;1.20;;;1.10;;
26656;SDS011;14279;50.010;8.260;2023-03-23T15:41:20;1.20;;;0.93;;
26656;SDS011;14279;50.010;8.260;2023-03-23T15:43:52;4.30;;;1.20;;
26656;SDS011;14279;50.010;8.260;2023-03-23T15:46:23;1.80;;;1.20;;
26656;SDS011;14279;50.010;8.260;2023-03-23T15:51:21;2.07;;;1.20;;
26656;SDS011;14279;50.010;8.260;2023-03-23T15:53:52;1.40;;;0.93;;
26656;SDS011;14279;50.010;8.260;2023-03-23T15:56:20;1.70;;;1.00;;
26656;SDS011;14279;50.010;8.260;2023-03-23T15:58:49;2.70;;;1.20;;
26656;SDS011;14279;50.010;8.260;2023-03-23T16:01:22;1.83;;;1.17;;
26656;SDS011;14279;50.010;8.260;2023-03-23T16:03:51;9.00;;;1.17;;
26656;SDS011;14279;50.010;8.260;2023-03-23T16:06:19;2.30;;;1.10;;
26656;SDS011;14279;50.010;8.260;2023-03-23T16:08:46;1.03;;;0.90;;
26656;SDS011;14279;50.010;8.260;2023-03-23T16:11:12;1.73;;;1.00;;
26656;SDS011;14279;50.010;8.260;2023-03-23T16:13:38;1.50;;;1.40;;
26656;SDS011;14279;50.010;8.260;2023-03-23T16:16:05;1.70;;;1.40;;
26656;SDS011;14279;50.010;8.260;2023-03-23T16:18:34;1.40;;;1.30;;
26656;SDS011;14279;50.010;8.260;2023-03-23T16:20:59;3.10;;;1.27;;
26656;SDS011;14279;50.010;8.260;2023-03-23T16:23:25;1.67;;;1.57;;
26656;SDS011;14279;50.010;8.260;2023-03-23T16:25:51;2.40;;;1.40;;
26656;SDS011;14279;50.010;8.260;2023-03-23T16:28:16;1.40;;;1.30;;
26656;SDS011;14279;50.010;8.260;2023-03-23T16:30:44;1.57;;;1.47;;
26656;SDS011;14279;50.010;8.260;2023-03-23T16:33:10;1.27;;;1.23;;
26656;SDS011;14279;50.010;8.260;2023-03-23T16:35:35;2.83;;;1.40;;
26656;SDS011;14279;50.010;8.260;2023-03-23T16:38:02;3.13;;;1.43;;
26656;SDS011;14279;50.010;8.260;2023-03-23T16:40:27;2.10;;;1.60;;
26656;SDS011;14279;50.010;8.260;2023-03-23T16:42:53;7.40;;;1.43;;
26656;SDS011;14279;50.010;8.260;2023-03-23T16:45:19;1.50;;;1.40;;
26656;SDS011;14279;50.010;8.260;2023-03-23T16:47:45;3.70;;;1.50;;
26656;SDS011;14279;50.010;8.260;2023-03-23T16:50:12;4.13;;;1.77;;
26656;SDS011;14279;50.010;8.260;2023-03-23T16:52:40;1.83;;;1.40;;
26656;SDS011;14279;50.010;8.260;2023-03-23T16:55:07;1.67;;;1.57;;